Airport View

Enter AWOS ICAO identifier for current METAR.

ex. KFNL

KGYL 212348Z AUTO 20006KT 10SM SCT026 BKN036 OVC055 A2973 RMK AO2 LTG DSNT NE

22 Sep 2019 00:03

Frequency: 119.625

Phone: 320-864-5830

Other Area AWOS: KHCD - KCFE - KFCM - KLJF

TAF KMSP 212325Z 2200/2306 21010G19KT P6SM SCT040 FM220600 27005KT P6SM SCT250 FM221100 29006KT P6SM SCT050 BKN250 FM221700 28009KT P6SM BKN050 FM230200 00000KT P6SM SCT120